Date,TemperatureHighF,TemperatureAvgF,TemperatureLowF,DewpointHighF,DewpointAvgF,DewpointLowF,HumidityHigh,HumidityAvg,HumidityLow,PressureMaxIn,PressureMinIn,WindSpeedMaxMPH,WindSpeedAvgMPH,GustSpeedMaxMPH,PrecipitationSumIn
2013-5-1,67,56,46,50,45,38,95,69,35,30.43,30.28,11,1,9,0.00
2013-5-2,66,28,52,53,-33,-100,90,30,50,30.44,30.32,9,-551,0,0.00
2013-5-3,63,38,48,48,-1,-100,84,47,48,30.38,30.31,9,-308,13,0.00
2013-5-4,66,53,48,49,45,41,92,77,45,30.34,30.19,12,1,6,0.00
2013-5-5,62,52,45,48,44,39,91,74,56,30.25,30.16,6,1,0,0.00
2013-5-6,62,55,47,58,53,45,98,92,86,30.19,30.06,7,1,0,0.00
2013-5-7,63,60,58,63,60,57,100,100,99,30.07,29.93,6,1,0,0.80
2013-5-8,68,60,56,61,58,56,100,93,70,30.00,29.94,7,1,0,0.07
2013-5-9,74,62,52,62,57,52,100,87,61,29.99,29.92,7,1,0,0.01
2013-5-10,80,68,54,64,60,54,100,77,50,30.01,29.88,11,2,0,0.17
2013-5-11,78,68,63,67,64,61,100,87,59,29.92,29.70,9,1,3,0.72
2013-5-12,63,60,52,63,43,28,100,60,30,30.03,29.73,18,4,0,0.77
2013-5-13,59,51,40,38,31,24,89,50,27,30.16,30.03,16,3,10,0.00
2013-5-14,63,51,35,49,36,28,94,60,31,30.21,30.06,13,1,0,0.00
2013-5-15,78,66,56,65,56,47,93,72,57,30.06,29.68,9,2,9,0.00
2013-5-16,83,75,67,64,61,58,76,62,46,29.90,29.73,16,2,0,0.00
2013-5-17,77,70,58,60,53,42,95,59,33,30.15,29.90,7,1,0,0.00
2013-5-18,65,62,59,59,56,51,98,82,62,30.24,30.15,10,2,0,0.01
2013-5-19,72,65,60,67,64,59,100,96,83,30.21,30.09,7,0,0,0.03
2013-5-20,80,71,65,70,68,65,100,91,68,30.12,29.98,7,1,0,0.00
2013-5-21,83,72,66,72,69,66,100,88,67,30.00,29.88,9,1,5,0.00
2013-5-22,85,76,67,75,71,65,100,86,69,29.93,29.84,10,2,0,0.00
2013-5-23,79,73,68,72,69,65,98,87,69,29.91,29.75,14,2,0,0.03
2013-5-24,67,58,50,65,51,34,100,79,53,30.13,29.72,14,4,0,0.03
2013-5-25,65,55,45,40,36,33,67,50,34,30.16,30.07,15,5,0,0.00
2013-5-26,71,59,48,45,39,35,79,49,28,30.21,30.11,12,2,0,0.00
2013-5-27,71,60,46,54,46,37,90,62,35,30.28,30.18,4,0,0,0.00
2013-5-28,78,68,58,70,63,54,99,85,71,30.20,30.07,5,1,0,0.14
2013-5-29,88,77,66,72,68,63,98,76,43,30.12,30.07,10,2,0,0.00
2013-5-30,88,79,69,75,69,64,93,72,56,30.18,30.10,9,1,0,0.00
2013-5-31,90,79,67,70,67,64,93,70,45,30.15,30.03,9,1,4,0.00